Decoded Metar for UUOK ( in _UNIDENTIFIED) (IATA:N/A) | Meteo·Mobile Aviation Weather
aviador You're here:

UUOK Decoded Metar

in _UNIDENTIFIED
Report Time2018-12-16 11:00:00
UTC Time2018-12-16 11:35:11
Flight Rules lifr LIFR
Wind120° at 8 kt
W.Decomp.*RWY 12: 7.9 kt HW 1.1 kt LCW
W.Rank120° ranks 10
Current wind is below 120° avg. (8.6)
Visibility9999 m
Phenomena:Light Snow Grains
Clouds:Overcast 004 Hf
Ceiling400 ft
Temp-6°C (ISA -20)
Dew Point-6°C (100% RH)
AAT-11.6°C
QNH1035 hPa
Density Alt-2,434 ft
Elevation686 ft
Report Wrong Elevation
Raw Report
METAR UUOK 161100Z 12004MPS 090V150 9999 -SG OVC004 M06/M06 Q1035
R30/////// NOSIG RMK QBB130 QFE757/1009=

Extra information for UUOK:More info

Metar Taf Metar & Taf Last 4 Metars F.Rules Stats Wind Profile Meteogram Temp Stats Metar ALERT Operation Metar Decoded Social comments